Terminal Aerodrome Forecast
Issued by NWS Charleston, WV

Current Version | Previous Version | Graphics & Text | Print | Product List | Glossary On
Versions: 1 2 3 4 5 6 7 8 9 10 11 12 13 14 15 16 17 18 19 20 21 22
000
FTUS41 KRLX 281500 AAA
TAFHTS
TAF AMD
KHTS 281502Z 2815/2912 27004KT P6SM BKN040
     FM281700 26004KT P6SM BKN070
     FM290000 VRB02KT P6SM SCT090=

USA.gov is the U.S. government's official web portal to all federal, state and local government web resources and services.